Time;durP1;ratioP1;P1;durP2;ratioP2;P2;SDS_P1;SDS_P2;PMS_P1;PMS_P2;Temp;Humidity;BMP_temperature;BMP_pressure;BME280_temperature;BME280_humidity;BME280_pressure;Samples;Min_cycle;Max_cycle;Signal;HPM_P1;HPM_P2
2021/10/26 00:00:10;;;;;;;;;16.25;15.00;;;;;;;;6326980;22;45430;-79
2021/10/26 00:02:36;;;;;;;;;22.50;17.25;;;;;;;;6328365;22;45369;-79
2021/10/26 00:05:02;;;;;;;;;13.00;12.75;;;;;;;;6327204;22;45406;-79
2021/10/26 00:07:27;;;;;;;;;16.00;13.75;;;;;;;;6329528;22;45300;-79
2021/10/26 00:09:52;;;;;;;;;14.33;13.33;;;;;;;;6327033;22;45509;-79
2021/10/26 00:12:18;;;;;;;;;14.75;12.75;;;;;;;;6327949;22;45354;-79
2021/10/26 00:14:55;;;;;;;;;;;;;;;;;;;;;
2021/10/26 00:18:00;;;;;;;;;17.25;16.00;;;;;;;;6327108;22;71805;-79
2021/10/26 00:20:25;;;;;;;;;23.00;17.00;;;;;;;;6326676;22;45830;-79
2021/10/26 00:22:50;;;;;;;;;16.00;12.25;;;;;;;;6328145;22;45463;-79
2021/10/26 00:25:16;;;;;;;;;14.00;11.25;;;;;;;;6300791;22;45415;-78
2021/10/26 00:27:41;;;;;;;;;20.25;15.50;;;;;;;;6328473;22;45615;-79
2021/10/26 00:30:07;;;;;;;;;16.25;15.75;;;;;;;;6327852;22;45445;-80
2021/10/26 00:32:35;;;;;;;;;17.00;15.00;;;;;;;;6300536;22;45579;-81
2021/10/26 00:35:16;;;;;;;;;19.50;15.75;;;;;;;;6328682;22;45767;-79
2021/10/26 00:37:41;;;;;;;;;17.50;14.75;;;;;;;;6330091;22;45269;-79
2021/10/26 00:40:14;;;;;;;;;16.25;15.00;;;;;;;;6326844;22;45466;-78
2021/10/26 00:42:51;;;;;;;;;16.00;16.00;;;;;;;;6327162;22;45590;-79
2021/10/26 00:45:16;;;;;;;;;16.50;13.00;;;;;;;;6329670;22;45627;-81
2021/10/26 00:47:42;;;;;;;;;15.25;14.50;;;;;;;;6331281;22;45465;-81
2021/10/26 00:50:07;;;;;;;;;16.00;15.00;;;;;;;;6329989;22;46122;-80
2021/10/26 00:52:32;;;;;;;;;18.25;15.00;;;;;;;;6329797;22;45458;-81
2021/10/26 00:54:59;;;;;;;;;22.25;14.25;;;;;;;;6329494;22;45900;-80
2021/10/26 00:57:26;;;;;;;;;17.75;15.00;;;;;;;;6302845;22;45432;-79
2021/10/26 00:59:54;;;;;;;;;19.50;15.75;;;;;;;;6332106;22;45311;-81
2021/10/26 01:02:19;;;;;;;;;22.75;16.75;;;;;;;;6329106;22;45507;-79
2021/10/26 01:04:45;;;;;;;;;17.25;15.00;;;;;;;;6330650;22;45410;-80
2021/10/26 01:07:11;;;;;;;;;24.50;19.25;;;;;;;;6331683;22;45644;-79
2021/10/26 01:10:06;;;;;;;;;17.00;15.00;;;;;;;;6328917;22;45004;-80
2021/10/26 01:12:33;;;;;;;;;19.00;15.75;;;;;;;;6312731;22;45669;-79
2021/10/26 01:14:59;;;;;;;;;19.75;14.25;;;;;;;;6300980;22;46153;-80
2021/10/26 01:17:24;;;;;;;;;15.00;14.25;;;;;;;;6328968;22;45747;-79
2021/10/26 01:20:24;;;;;;;;;10.50;10.50;;;;;;;;6329207;22;46013;-79
2021/10/26 01:22:50;;;;;;;;;14.50;11.50;;;;;;;;6328757;22;45631;-79
2021/10/26 01:25:15;;;;;;;;;13.00;11.33;;;;;;;;6332815;22;45809;-80
2021/10/26 01:30:42;;;;;;;;;18.50;14.75;;;;;;;;6282324;22;46011;-79
2021/10/26 01:33:08;;;;;;;;;16.00;13.00;;;;;;;;6331299;22;45493;-80
2021/10/26 01:35:34;;;;;;;;;16.25;13.75;;;;;;;;6329930;22;45337;-81
2021/10/26 01:38:09;;;;;;;;;;;;;;;;;;;;;
2021/10/26 01:40:36;;;;;;;;;12.00;12.00;;;;;;;;6328678;22;74634;-79
2021/10/26 01:43:02;;;;;;;;;15.75;14.00;;;;;;;;6326789;22;45616;-80
2021/10/26 01:45:27;;;;;;;;;17.25;14.00;;;;;;;;6325931;22;45532;-78
2021/10/26 01:47:55;;;;;;;;;15.25;13.00;;;;;;;;6329978;22;45289;-79
2021/10/26 01:50:23;;;;;;;;;11.00;10.00;;;;;;;;6329463;22;45347;-80
2021/10/26 01:53:12;;;;;;;;;14.50;9.00;;;;;;;;6303014;22;45607;-80
2021/10/26 01:56:00;;;;;;;;;13.25;9.50;;;;;;;;6334977;22;45350;-79
2021/10/26 01:58:31;;;;;;;;;10.50;9.75;;;;;;;;6339151;22;45376;-79
2021/10/26 02:00:57;;;;;;;;;13.75;10.75;;;;;;;;6337055;22;46020;-82
2021/10/26 02:03:22;;;;;;;;;10.00;10.00;;;;;;;;6335132;22;45652;-79
2021/10/26 02:05:50;;;;;;;;;15.50;10.00;;;;;;;;6335722;22;44739;-80
2021/10/26 02:08:15;;;;;;;;;12.50;10.00;;;;;;;;6332306;22;45937;-80
2021/10/26 02:10:41;;;;;;;;;16.00;12.00;;;;;;;;6331719;22;45692;-79
2021/10/26 02:13:06;;;;;;;;;13.00;9.50;;;;;;;;6330910;22;45382;-78
2021/10/26 02:15:31;;;;;;;;;9.50;9.25;;;;;;;;6331064;22;45482;-81
2021/10/26 02:17:57;;;;;;;;;13.75;13.00;;;;;;;;6331084;22;45382;-80
2021/10/26 02:20:22;;;;;;;;;10.00;8.75;;;;;;;;6330275;22;45621;-79
2021/10/26 02:22:47;;;;;;;;;13.00;12.00;;;;;;;;6332064;22;45894;-79
2021/10/26 02:25:31;;;;;;;;;13.00;10.67;;;;;;;;6333358;22;45399;-80
2021/10/26 02:28:01;;;;;;;;;13.00;10.50;;;;;;;;6326688;22;45466;-81
2021/10/26 02:30:48;;;;;;;;;11.50;10.25;;;;;;;;6325339;22;45366;-80
2021/10/26 02:33:13;;;;;;;;;14.25;13.00;;;;;;;;6325810;22;45324;-79
2021/10/26 02:36:19;;;;;;;;;19.00;17.50;;;;;;;;6326544;22;45493;-78
2021/10/26 02:39:07;;;;;;;;;10.75;10.00;;;;;;;;6327686;22;45456;-79
2021/10/26 02:41:32;;;;;;;;;12.75;10.00;;;;;;;;6325091;22;46587;-79
2021/10/26 02:43:57;;;;;;;;;17.75;14.75;;;;;;;;6327550;22;45570;-81
2021/10/26 02:46:22;;;;;;;;;15.25;13.75;;;;;;;;6331759;22;45931;-79
2021/10/26 02:48:48;;;;;;;;;15.75;12.75;;;;;;;;6300727;22;45418;-79
2021/10/26 02:51:14;;;;;;;;;14.25;13.50;;;;;;;;6331799;22;46050;-79
2021/10/26 02:53:39;;;;;;;;;15.75;12.25;;;;;;;;6300112;22;45426;-79
2021/10/26 02:56:07;;;;;;;;;14.00;12.00;;;;;;;;6327134;22;45470;-79
2021/10/26 02:58:32;;;;;;;;;13.75;12.50;;;;;;;;6328379;22;45507;-79
2021/10/26 03:01:00;;;;;;;;;16.00;12.67;;;;;;;;6325859;22;45828;-80
2021/10/26 03:03:26;;;;;;;;;13.75;12.50;;;;;;;;6326431;22;45389;-79
2021/10/26 03:05:51;;;;;;;;;15.75;13.00;;;;;;;;6328594;22;45366;-80
2021/10/26 03:08:17;;;;;;;;;13.50;10.25;;;;;;;;6326402;22;45425;-80
2021/10/26 03:10:43;;;;;;;;;11.25;9.25;;;;;;;;6325205;22;46100;-80
2021/10/26 03:13:08;;;;;;;;;14.00;10.33;;;;;;;;6328191;22;45485;-80
2021/10/26 03:15:33;;;;;;;;;13.67;12.00;;;;;;;;6326208;22;45496;-79
2021/10/26 03:17:58;;;;;;;;;10.00;10.00;;;;;;;;6327195;22;45367;-80
2021/10/26 03:20:24;;;;;;;;;12.33;10.00;;;;;;;;6327366;22;45517;-79
2021/10/26 03:22:54;;;;;;;;;17.50;11.75;;;;;;;;6326347;22;45335;-80
2021/10/26 03:25:32;;;;;;;;;15.50;10.75;;;;;;;;6327573;22;45408;-79
2021/10/26 03:27:58;;;;;;;;;13.00;9.00;;;;;;;;6325981;22;45996;-81
2021/10/26 03:30:53;;;;;;;;;11.00;9.25;;;;;;;;6324689;22;45822;-80
2021/10/26 03:33:17;;;;;;;;;13.25;10.25;;;;;;;;6324996;22;45590;-80
2021/10/26 03:35:45;;;;;;;;;19.00;12.00;;;;;;;;6326740;22;45489;-80
2021/10/26 03:38:11;;;;;;;;;14.25;11.00;;;;;;;;6326710;22;45501;-80
2021/10/26 03:40:36;;;;;;;;;12.75;10.75;;;;;;;;6328091;22;45781;-80
2021/10/26 03:43:04;;;;;;;;;15.75;12.00;;;;;;;;6326227;22;45771;-79
2021/10/26 03:45:30;;;;;;;;;14.00;13.50;;;;;;;;6325648;22;45885;-79
2021/10/26 03:47:58;;;;;;;;;16.00;13.00;;;;;;;;6328521;22;45549;-81
2021/10/26 03:50:23;;;;;;;;;15.25;11.50;;;;;;;;6325383;22;45975;-79
2021/10/26 03:52:48;;;;;;;;;15.00;13.75;;;;;;;;6326060;22;45395;-79
2021/10/26 03:55:14;;;;;;;;;15.50;12.00;;;;;;;;6331091;22;45612;-78
2021/10/26 03:57:39;;;;;;;;;13.25;13.00;;;;;;;;6326421;22;45528;-80
2021/10/26 04:00:10;;;;;;;;;14.75;14.25;;;;;;;;6298199;22;46064;-79
2021/10/26 04:02:40;;;;;;;;;14.25;11.75;;;;;;;;6325489;22;45379;-80
2021/10/26 04:08:20;;;;;;;;;9.00;9.00;;;;;;;;6198482;22;45523;-79
2021/10/26 04:10:49;;;;;;;;;9.00;9.00;;;;;;;;6199371;22;45851;-79
2021/10/26 04:13:19;;;;;;;;;9.25;7.50;;;;;;;;6200161;22;45669;-80
2021/10/26 04:15:45;;;;;;;;;14.25;10.25;;;;;;;;6197645;22;45649;-81
2021/10/26 04:18:10;;;;;;;;;13.00;12.25;;;;;;;;6199981;22;45747;-80
2021/10/26 04:20:58;;;;;;;;;12.75;9.50;;;;;;;;6198705;22;45524;-80
2021/10/26 04:23:50;;;;;;;;;13.50;9.25;;;;;;;;6174463;22;45715;-80
2021/10/26 04:26:25;;;;;;;;;14.00;9.00;;;;;;;;6199475;22;45523;-80
2021/10/26 04:28:53;;;;;;;;;14.00;10.50;;;;;;;;6199045;22;45495;-79
2021/10/26 04:31:21;;;;;;;;;9.75;9.50;;;;;;;;6201180;22;45399;-79
2021/10/26 04:33:49;;;;;;;;;14.25;10.25;;;;;;;;6199399;22;45428;-81
2021/10/26 04:36:14;;;;;;;;;12.00;11.75;;;;;;;;6200890;22;45762;-78
2021/10/26 04:38:39;;;;;;;;;9.00;7.67;;;;;;;;6201979;22;45319;-80
2021/10/26 04:41:10;;;;;;;;;15.25;9.00;;;;;;;;6212551;22;46165;-82
2021/10/26 04:43:44;;;;;;;;;9.25;9.00;;;;;;;;6334445;22;45441;-80
2021/10/26 04:46:10;;;;;;;;;11.50;9.50;;;;;;;;6331670;22;45555;-78
2021/10/26 04:48:38;;;;;;;;;7.75;7.50;;;;;;;;6331188;22;45619;-79
2021/10/26 04:51:03;;;;;;;;;12.75;9.00;;;;;;;;6329847;22;46023;-81
2021/10/26 04:53:31;;;;;;;;;7.25;7.25;;;;;;;;6326919;22;45764;-79
2021/10/26 04:55:56;;;;;;;;;16.75;9.50;;;;;;;;6299639;22;45355;-79
2021/10/26 04:58:32;;;;;;;;;13.75;10.50;;;;;;;;6328872;22;45397;-78
2021/10/26 05:00:57;;;;;;;;;12.00;10.00;;;;;;;;6326858;22;45934;-81
2021/10/26 05:03:22;;;;;;;;;9.00;9.00;;;;;;;;6328370;22;45491;-79
2021/10/26 05:05:48;;;;;;;;;12.00;8.00;;;;;;;;6329509;22;45307;-80
2021/10/26 05:08:13;;;;;;;;;11.67;11.33;;;;;;;;6330305;22;45341;-82
2021/10/26 05:10:38;;;;;;;;;10.00;9.00;;;;;;;;6330688;22;45400;-80
2021/10/26 05:13:03;;;;;;;;;13.67;9.33;;;;;;;;6330664;22;45363;-81
2021/10/26 05:15:29;;;;;;;;;9.50;9.50;;;;;;;;6324873;22;45375;-79
2021/10/26 05:17:56;;;;;;;;;15.50;14.25;;;;;;;;6329754;22;45844;-79
2021/10/26 05:20:25;;;;;;;;;14.00;13.25;;;;;;;;6297751;22;48006;-78
2021/10/26 05:22:52;;;;;;;;;15.75;14.50;;;;;;;;6326629;22;45396;-79
2021/10/26 05:25:20;;;;;;;;;22.25;17.00;;;;;;;;6329801;22;45344;-79
2021/10/26 05:27:45;;;;;;;;;17.25;16.00;;;;;;;;6326963;22;45350;-80
2021/10/26 05:30:10;;;;;;;;;24.50;18.50;;;;;;;;6301539;22;47637;-79
2021/10/26 05:32:38;;;;;;;;;20.25;13.00;;;;;;;;6302346;22;46075;-80
2021/10/26 05:35:03;;;;;;;;;13.00;13.00;;;;;;;;6328320;22;45531;-80
2021/10/26 05:37:28;;;;;;;;;22.50;18.50;;;;;;;;6327734;22;45486;-80
2021/10/26 05:39:54;;;;;;;;;13.00;13.00;;;;;;;;6327893;22;45395;-79
2021/10/26 05:42:22;;;;;;;;;17.00;12.75;;;;;;;;6325375;22;45272;-79
2021/10/26 05:50:06;;;;;;;;;13.25;12.00;;;;;;;;6286866;22;46536;-92
2021/10/26 06:00:16;;;;;;;;;13.75;11.25;;;;;;;;6309305;22;45431;-78
2021/10/26 06:02:42;;;;;;;;;12.33;10.67;;;;;;;;6330098;22;45405;-79
2021/10/26 06:05:07;;;;;;;;;18.67;14.67;;;;;;;;6327910;22;45348;-77
2021/10/26 06:07:32;;;;;;;;;14.25;13.50;;;;;;;;6326957;22;45340;-80
2021/10/26 06:09:58;;;;;;;;;17.33;13.00;;;;;;;;6327303;22;45465;-78
2021/10/26 06:12:28;;;;;;;;;19.50;10.75;;;;;;;;6328750;22;45470;-77
2021/10/26 06:14:54;;;;;;;;;19.75;14.00;;;;;;;;6328661;22;45479;-78
2021/10/26 06:17:19;;;;;;;;;14.00;10.00;;;;;;;;6326697;22;45450;-78
2021/10/26 06:19:44;;;;;;;;;14.25;11.75;;;;;;;;6330512;22;45378;-80
2021/10/26 06:22:09;;;;;;;;;13.33;13.33;;;;;;;;6329457;22;45432;-79
2021/10/26 06:24:36;;;;;;;;;16.50;13.75;;;;;;;;6327166;22;45467;-79
2021/10/26 06:27:01;;;;;;;;;20.25;13.75;;;;;;;;6322306;22;45316;-90
2021/10/26 06:29:26;;;;;;;;;19.00;13.00;;;;;;;;6274274;22;46835;-89
2021/10/26 06:39:37;;;;;;;;;18.75;12.00;;;;;;;;6274199;22;47428;-78
2021/10/26 06:42:03;;;;;;;;;15.00;10.50;;;;;;;;6265282;22;45443;-78
2021/10/26 06:44:28;;;;;;;;;13.00;10.50;;;;;;;;6262851;22;45367;-79
2021/10/26 06:46:53;;;;;;;;;12.50;11.25;;;;;;;;6282847;22;45537;-90
2021/10/26 06:49:19;;;;;;;;;13.50;10.25;;;;;;;;6308160;22;47295;-92
2021/10/26 06:51:44;;;;;;;;;13.25;9.75;;;;;;;;6337415;22;45390;-91
2021/10/26 06:54:10;;;;;;;;;14.50;13.25;;;;;;;;6313955;22;45718;-91
2021/10/26 06:56:35;;;;;;;;;17.25;13.75;;;;;;;;6333522;22;45686;-91
2021/10/26 06:59:01;;;;;;;;;16.50;14.00;;;;;;;;6333216;22;46931;-92
2021/10/26 07:14:21;;;;;;;;;11.75;9.00;;;;;;;;6269166;22;45890;-80
2021/10/26 07:16:47;;;;;;;;;18.50;17.00;;;;;;;;6273486;22;45422;-79
2021/10/26 07:19:12;;;;;;;;;25.25;20.25;;;;;;;;6269658;22;47328;-79
2021/10/26 07:45:54;;;;;;;;;23.50;19.75;;;;;;;;6302745;22;45546;-80
2021/10/26 07:48:24;;;;;;;;;20.25;15.75;;;;;;;;6332363;22;45577;-79
2021/10/26 07:50:51;;;;;;;;;21.75;16.50;;;;;;;;6321244;22;46030;-79
2021/10/26 07:53:17;;;;;;;;;23.50;15.50;;;;;;;;6327334;22;45749;-79
2021/10/26 07:55:42;;;;;;;;;12.50;11.25;;;;;;;;6297793;22;45489;-79
2021/10/26 07:58:08;;;;;;;;;25.00;20.75;;;;;;;;6327263;22;45906;-80
2021/10/26 08:01:01;;;;;;;;;;;;;;;;;;;;;
2021/10/26 08:03:22;;;;;;;;;18.50;14.00;;;;;;;;6321620;22;45295;-79
2021/10/26 08:05:47;;;;;;;;;19.75;15.00;;;;;;;;6325204;22;45961;-79
2021/10/26 08:08:12;;;;;;;;;21.50;14.50;;;;;;;;6322857;22;45939;-79
2021/10/26 08:10:37;;;;;;;;;20.25;14.75;;;;;;;;6323782;22;45343;-78
2021/10/26 08:13:03;;;;;;;;;23.67;19.00;;;;;;;;6322625;22;45348;-78
2021/10/26 08:15:29;;;;;;;;;18.25;14.75;;;;;;;;6322218;22;45473;-78
2021/10/26 08:17:54;;;;;;;;;23.50;14.50;;;;;;;;6325902;22;45647;-78
2021/10/26 08:20:28;;;;;;;;;17.75;16.00;;;;;;;;6323332;22;46870;-78
2021/10/26 08:22:53;;;;;;;;;15.50;14.25;;;;;;;;6321332;22;46080;-78
2021/10/26 08:25:22;;;;;;;;;22.50;19.00;;;;;;;;6324324;22;45521;-78
2021/10/26 08:27:52;;;;;;;;;20.25;16.75;;;;;;;;6324399;22;45690;-78
2021/10/26 08:35:39;;;;;;;;;26.75;17.50;;;;;;;;6325364;22;45851;-79
2021/10/26 08:38:07;;;;;;;;;16.00;14.75;;;;;;;;6325558;22;45626;-78
2021/10/26 08:40:47;;;;;;;;;25.00;18.50;;;;;;;;6291913;22;45512;-80
2021/10/26 08:43:32;;;;;;;;;18.25;16.50;;;;;;;;6318519;22;45649;-80
2021/10/26 08:46:03;;;;;;;;;21.50;17.00;;;;;;;;6304053;22;45557;-78
2021/10/26 08:48:29;;;;;;;;;18.25;16.25;;;;;;;;6322988;22;45454;-79
2021/10/26 08:50:55;;;;;;;;;19.50;17.00;;;;;;;;6320939;22;46344;-78
2021/10/26 08:53:21;;;;;;;;;18.75;16.00;;;;;;;;6317402;22;45402;-78
2021/10/26 08:58:33;;;;;;;;;17.75;16.75;;;;;;;;6326552;22;45794;-78
2021/10/26 09:01:43;;;;;;;;;14.75;14.75;;;;;;;;6324580;22;46475;-78
2021/10/26 09:04:09;;;;;;;;;20.25;17.00;;;;;;;;6192389;22;45582;-78
2021/10/26 09:06:49;;;;;;;;;25.00;21.75;;;;;;;;6192356;22;45907;-78
2021/10/26 09:17:53;;;;;;;;;17.75;15.50;;;;;;;;6166918;23;45547;-79
2021/10/26 09:20:21;;;;;;;;;17.00;13.50;;;;;;;;6158455;23;45696;-78
2021/10/26 09:22:55;;;;;;;;;16.25;11.50;;;;;;;;6162043;23;46312;-78
2021/10/26 09:25:23;;;;;;;;;17.75;13.00;;;;;;;;6163820;23;45788;-78
2021/10/26 09:27:49;;;;;;;;;11.75;10.00;;;;;;;;6165202;23;45468;-78
2021/10/26 09:30:25;;;;;;;;;14.00;11.00;;;;;;;;6139645;23;45501;-78
2021/10/26 09:32:51;;;;;;;;;14.00;11.50;;;;;;;;6152725;23;45861;-79
2021/10/26 09:35:18;;;;;;;;;12.25;12.00;;;;;;;;6156404;23;45882;-78
2021/10/26 09:37:56;;;;;;;;;19.75;11.00;;;;;;;;6160384;23;45833;-78
2021/10/26 09:40:35;;;;;;;;;10.25;9.00;;;;;;;;6190140;22;45469;-79
2021/10/26 09:43:05;;;;;;;;;11.75;11.25;;;;;;;;6252582;22;46136;-78
2021/10/26 09:45:31;;;;;;;;;17.00;12.25;;;;;;;;6247653;22;45796;-78
2021/10/26 09:47:59;;;;;;;;;14.25;10.75;;;;;;;;6231149;22;46213;-79
2021/10/26 09:53:30;;;;;;;;;11.00;7.75;;;;;;;;6286139;22;46940;-78
2021/10/26 09:56:36;;;;;;;;;9.00;7.50;;;;;;;;6316701;22;45542;-79
2021/10/26 09:59:19;;;;;;;;;12.75;10.50;;;;;;;;6190730;22;45497;-79
2021/10/26 10:01:54;;;;;;;;;10.00;10.00;;;;;;;;6191820;22;45662;-79
2021/10/26 10:04:35;;;;;;;;;11.75;9.00;;;;;;;;6192436;22;45615;-80
2021/10/26 10:07:32;;;;;;;;;10.25;9.25;;;;;;;;6196692;22;45662;-79
2021/10/26 10:13:14;;;;;;;;;10.00;10.00;;;;;;;;6104350;23;45966;-80
2021/10/26 10:15:44;;;;;;;;;10.50;6.50;;;;;;;;6101559;23;47368;-79
2021/10/26 10:18:10;;;;;;;;;10.25;6.00;;;;;;;;6100377;23;45917;-79
2021/10/26 10:20:36;;;;;;;;;10.00;8.25;;;;;;;;6100837;23;45800;-81
2021/10/26 10:23:55;;;;;;;;;11.00;6.75;;;;;;;;6104409;23;45791;-81
2021/10/26 10:26:16;;;;;;;;;8.50;7.25;;;;;;;;6099074;23;46405;-81
2021/10/26 10:28:51;;;;;;;;;8.50;8.00;;;;;;;;6105510;23;45404;-80
2021/10/26 10:31:22;;;;;;;;;9.00;7.25;;;;;;;;6105026;23;45437;-82
2021/10/26 10:33:48;;;;;;;;;7.00;7.00;;;;;;;;6130262;22;45474;-81
2021/10/26 10:36:17;;;;;;;;;10.25;9.25;;;;;;;;6229790;22;45546;-79
2021/10/26 10:38:42;;;;;;;;;9.75;7.75;;;;;;;;6229692;22;45382;-78
2021/10/26 10:41:28;;;;;;;;;8.00;5.75;;;;;;;;6232046;22;45890;-79
2021/10/26 10:43:54;;;;;;;;;9.25;7.50;;;;;;;;6229029;22;45433;-79
2021/10/26 10:46:45;;;;;;;;;7.00;6.25;;;;;;;;6234701;22;46597;-78
2021/10/26 10:49:23;;;;;;;;;12.25;6.00;;;;;;;;6233045;22;45744;-79
2021/10/26 10:51:52;;;;;;;;;7.75;4.00;;;;;;;;6331249;22;45458;-79
2021/10/26 10:54:41;;;;;;;;;5.50;5.00;;;;;;;;6330912;22;45537;-78
2021/10/26 10:57:17;;;;;;;;;6.50;5.00;;;;;;;;6330451;22;45728;-79
2021/10/26 11:07:48;;;;;;;;;8.75;8.00;;;;;;;;6282870;22;45717;-77
2021/10/26 11:13:51;;;;;;;;;7.00;5.50;;;;;;;;6293625;22;45394;-78
2021/10/26 11:28:12;;;;;;;;;7.00;6.25;;;;;;;;6289381;22;45414;-77
2021/10/26 11:30:47;;;;;;;;;6.00;5.50;;;;;;;;6321136;22;45672;-77
2021/10/26 11:33:12;;;;;;;;;9.00;6.50;;;;;;;;6319941;22;45740;-77
2021/10/26 11:35:41;;;;;;;;;6.75;6.75;;;;;;;;6318846;22;46105;-77
2021/10/26 11:38:15;;;;;;;;;7.00;6.25;;;;;;;;6317787;22;45449;-79
2021/10/26 11:40:56;;;;;;;;;8.50;6.00;;;;;;;;6317079;22;46706;-79
2021/10/26 11:43:22;;;;;;;;;6.50;6.00;;;;;;;;6321624;22;45429;-80
2021/10/26 11:45:53;;;;;;;;;6.25;5.00;;;;;;;;6286981;22;45420;-79
2021/10/26 11:48:37;;;;;;;;;6.75;4.00;;;;;;;;6316242;22;45457;-79
2021/10/26 11:51:21;;;;;;;;;7.00;6.25;;;;;;;;6319700;22;46170;-79
2021/10/26 11:53:48;;;;;;;;;10.00;7.00;;;;;;;;6289290;22;45368;-79
2021/10/26 11:56:24;;;;;;;;;10.75;8.00;;;;;;;;6313441;22;45539;-78
2021/10/26 11:58:54;;;;;;;;;10.00;8.25;;;;;;;;6315763;22;46140;-79
2021/10/26 12:01:39;;;;;;;;;9.00;7.75;;;;;;;;6319192;22;45949;-79
2021/10/26 12:04:12;;;;;;;;;6.75;6.50;;;;;;;;6282106;22;45937;-81
2021/10/26 12:07:16;;;;;;;;;5.00;5.00;;;;;;;;6320093;22;45778;-81
2021/10/26 12:09:47;;;;;;;;;6.25;4.25;;;;;;;;6313227;22;45466;-81
2021/10/26 12:12:19;;;;;;;;;6.00;3.50;;;;;;;;6320716;22;46268;-81
2021/10/26 12:14:46;;;;;;;;;5.00;3.25;;;;;;;;6313160;22;45443;-81
2021/10/26 12:17:15;;;;;;;;;4.00;3.25;;;;;;;;6310728;22;46012;-81
2021/10/26 12:19:52;;;;;;;;;5.00;4.50;;;;;;;;6308240;22;45484;-82
2021/10/26 12:22:25;;;;;;;;;1.25;1.25;;;;;;;;6320343;22;45852;-81
2021/10/26 12:24:54;;;;;;;;;4.50;4.00;;;;;;;;6314440;22;46308;-81
2021/10/26 12:27:27;;;;;;;;;3.50;3.50;;;;;;;;6322013;22;45407;-81
2021/10/26 12:29:53;;;;;;;;;4.00;4.00;;;;;;;;6291295;22;45519;-81
2021/10/26 12:32:39;;;;;;;;;4.25;3.25;;;;;;;;6314731;22;45482;-82
2021/10/26 12:35:08;;;;;;;;;3.00;3.00;;;;;;;;6314626;22;45296;-82
2021/10/26 12:40:44;;;;;;;;;4.00;2.50;;;;;;;;6326072;22;45471;-81
2021/10/26 12:46:30;;;;;;;;;4.00;4.00;;;;;;;;6162971;23;45795;-81
2021/10/26 12:49:35;;;;;;;;;3.75;2.00;;;;;;;;6163257;23;45508;-81
2021/10/26 12:52:10;;;;;;;;;4.50;2.00;;;;;;;;6100989;23;45555;-80
2021/10/26 12:54:35;;;;;;;;;5.00;3.50;;;;;;;;6099524;23;46051;-82
2021/10/26 12:57:02;;;;;;;;;5.00;5.00;;;;;;;;6103133;23;45804;-81
2021/10/26 12:59:31;;;;;;;;;5.00;3.00;;;;;;;;6102368;23;46013;-81
2021/10/26 13:02:00;;;;;;;;;3.00;2.00;;;;;;;;6105420;23;45441;-82
2021/10/26 13:04:26;;;;;;;;;7.50;4.25;;;;;;;;6102546;23;45458;-82
2021/10/26 13:06:54;;;;;;;;;4.00;3.00;;;;;;;;6104824;23;45449;-82
2021/10/26 13:09:31;;;;;;;;;4.50;4.50;;;;;;;;6103314;23;45361;-83
2021/10/26 13:12:03;;;;;;;;;5.25;4.75;;;;;;;;6105375;23;45999;-81
2021/10/26 13:14:56;;;;;;;;;6.50;5.00;;;;;;;;6105405;23;48258;-82
2021/10/26 13:17:23;;;;;;;;;6.50;4.00;;;;;;;;6094137;23;45461;-82
2021/10/26 13:22:55;;;;;;;;;6.00;4.75;;;;;;;;6089432;22;45469;-82
2021/10/26 13:26:12;;;;;;;;;4.75;3.00;;;;;;;;6169102;22;47294;-82
2021/10/26 13:29:28;;;;;;;;;11.75;3.75;;;;;;;;6195209;22;45357;-80
2021/10/26 13:31:52;;;;;;;;;3.00;3.00;;;;;;;;6186958;22;45965;-81
2021/10/26 13:40:57;;;;;;;;;3.00;3.00;;;;;;;;5989519;23;45614;-80
2021/10/26 13:43:32;;;;;;;;;5.00;5.00;;;;;;;;6012256;23;45368;-81
2021/10/26 13:46:38;;;;;;;;;3.25;3.25;;;;;;;;6019425;23;45681;-81
2021/10/26 13:49:07;;;;;;;;;3.00;2.50;;;;;;;;5991507;23;45495;-81
2021/10/26 13:52:04;;;;;;;;;5.00;4.50;;;;;;;;6010901;23;44881;-80
2021/10/26 13:54:29;;;;;;;;;4.00;4.00;;;;;;;;6014471;23;45298;-80
2021/10/26 13:57:07;;;;;;;;;4.00;4.00;;;;;;;;6018573;23;45544;-82
2021/10/26 14:02:59;;;;;;;;;8.50;5.75;;;;;;;;6109982;23;45325;-81
2021/10/26 14:05:23;;;;;;;;;4.00;4.00;;;;;;;;6109032;23;45552;-79
2021/10/26 14:07:49;;;;;;;;;3.25;3.25;;;;;;;;6107686;23;45467;-79
2021/10/26 14:10:14;;;;;;;;;4.67;2.33;;;;;;;;6106108;23;45333;-80
2021/10/26 14:12:40;;;;;;;;;3.00;3.00;;;;;;;;6104388;23;45599;-80
2021/10/26 14:15:07;;;;;;;;;6.50;3.00;;;;;;;;6209947;22;45450;-79
2021/10/26 14:21:00;;;;;;;;;4.75;3.50;;;;;;;;6225128;22;45627;-81
2021/10/26 14:27:06;;;;;;;;;5.00;3.75;;;;;;;;6163187;23;45767;-80
2021/10/26 14:33:13;;;;;;;;;3.00;2.75;;;;;;;;6070338;23;46002;-80
2021/10/26 14:35:40;;;;;;;;;4.25;3.00;;;;;;;;6046296;23;46077;-80
2021/10/26 14:56:07;;;;;;;;;6.25;6.25;;;;;;;;6076779;23;45601;-80
2021/10/26 14:58:41;;;;;;;;;3.00;3.00;;;;;;;;6074716;23;45524;-82
2021/10/26 15:01:09;;;;;;;;;4.00;4.00;;;;;;;;6100576;23;45487;-81
2021/10/26 15:07:01;;;;;;;;;16.50;12.75;;;;;;;;5987361;23;46288;-81
2021/10/26 15:18:36;;;;;;;;;7.50;6.75;;;;;;;;5992772;23;45954;-78
2021/10/26 15:21:45;;;;;;;;;8.00;6.25;;;;;;;;6018007;23;45479;-78
2021/10/26 15:33:49;;;;;;;;;14.00;13.00;;;;;;;;5840197;24;45437;-80
2021/10/26 15:36:32;;;;;;;;;12.50;11.50;;;;;;;;5842165;24;45673;-79
2021/10/26 15:42:05;;;;;;;;;9.00;9.00;;;;;;;;5802257;24;45715;-80
2021/10/26 15:48:09;;;;;;;;;10.00;8.00;;;;;;;;5822953;24;45345;-80
2021/10/26 16:19:37;;;;;;;;;4.00;4.00;;;;;;;;5771032;24;45463;-81
2021/10/26 16:48:20;;;;;;;;;17.50;16.25;;;;;;;;6307427;22;1384644;-82
2021/10/26 16:50:53;;;;;;;;;30.75;25.50;;;;;;;;6368664;22;46107;-81
2021/10/26 16:56:25;;;;;;;;;10.75;9.00;;;;;;;;6371728;22;45383;-81
2021/10/26 16:58:51;;;;;;;;;22.75;17.50;;;;;;;;6368753;22;45535;-81
2021/10/26 17:01:25;;;;;;;;;28.75;21.00;;;;;;;;6366770;22;45342;-80
2021/10/26 17:31:16;;;;;;;;;7.00;7.00;;;;;;;;6293085;22;45756;-76
2021/10/26 17:33:50;;;;;;;;;9.25;7.00;;;;;;;;6366866;22;46748;-76
2021/10/26 17:36:16;;;;;;;;;14.75;13.50;;;;;;;;6356040;22;45386;-76
2021/10/26 17:38:41;;;;;;;;;25.75;17.50;;;;;;;;6364611;22;45456;-77
2021/10/26 17:41:11;;;;;;;;;18.00;14.00;;;;;;;;6364650;22;45605;-76
2021/10/26 17:43:38;;;;;;;;;14.50;10.00;;;;;;;;6365093;22;45606;-77
2021/10/26 17:46:04;;;;;;;;;16.00;8.50;;;;;;;;6371990;22;45420;-77
2021/10/26 17:48:29;;;;;;;;;11.25;7.00;;;;;;;;6384708;22;44753;-77
2021/10/26 17:50:59;;;;;;;;;8.50;5.00;;;;;;;;6350749;22;46487;-76
2021/10/26 17:53:41;;;;;;;;;6.00;6.00;;;;;;;;6358324;22;45620;-77
2021/10/26 17:56:08;;;;;;;;;7.50;5.75;;;;;;;;6360800;22;45488;-76
2021/10/26 17:58:34;;;;;;;;;6.50;6.50;;;;;;;;6333776;22;45524;-80
2021/10/26 18:00:59;;;;;;;;;8.25;8.25;;;;;;;;6357858;22;46417;-78
2021/10/26 18:03:26;;;;;;;;;7.50;6.00;;;;;;;;6360368;22;45719;-77
2021/10/26 18:05:52;;;;;;;;;9.50;5.50;;;;;;;;6359975;22;45585;-77
2021/10/26 18:08:17;;;;;;;;;6.00;4.25;;;;;;;;6361439;22;45603;-77
2021/10/26 18:10:43;;;;;;;;;6.75;5.00;;;;;;;;6360076;22;45392;-77
2021/10/26 18:13:09;;;;;;;;;5.00;5.00;;;;;;;;6360013;22;45415;-76
2021/10/26 18:15:35;;;;;;;;;6.00;6.00;;;;;;;;6359326;22;45559;-76
2021/10/26 18:18:01;;;;;;;;;7.00;6.00;;;;;;;;6357956;22;45394;-76
2021/10/26 18:20:27;;;;;;;;;9.00;7.25;;;;;;;;6355753;22;45726;-76
2021/10/26 18:22:52;;;;;;;;;53.50;37.75;;;;;;;;6358770;22;45985;-75
2021/10/26 18:25:18;;;;;;;;;43.00;35.00;;;;;;;;6364765;22;45231;-77
2021/10/26 18:28:15;;;;;;;;;;;;;;;;;;;;;
2021/10/26 18:30:40;;;;;;;;;24.25;16.50;;;;;;;;6389804;22;70456;-76
2021/10/26 18:33:06;;;;;;;;;17.50;15.00;;;;;;;;6392565;22;45508;-76
2021/10/26 18:35:31;;;;;;;;;21.00;13.50;;;;;;;;6389505;22;45640;-77
2021/10/26 18:38:03;;;;;;;;;14.33;12.67;;;;;;;;6358090;22;45476;-78
2021/10/26 18:40:30;;;;;;;;;23.25;17.00;;;;;;;;6365404;22;45591;-77
2021/10/26 18:43:01;;;;;;;;;21.75;19.00;;;;;;;;6391322;22;46059;-76
2021/10/26 18:45:30;;;;;;;;;21.75;16.50;;;;;;;;6390848;22;45503;-77
2021/10/26 18:47:56;;;;;;;;;18.25;14.25;;;;;;;;6361446;22;45660;-78
2021/10/26 18:58:06;;;;;;;;;8.75;8.75;;;;;;;;6350018;22;45636;-78
2021/10/26 19:00:31;;;;;;;;;7.00;7.00;;;;;;;;6361152;22;45529;-78
2021/10/26 19:13:06;;;;;;;;;14.25;12.00;;;;;;;;6030028;23;45791;-79
2021/10/26 19:15:31;;;;;;;;;21.25;15.00;;;;;;;;6023316;23;45646;-80
2021/10/26 19:29:05;;;;;;;;;16.25;13.75;;;;;;;;6394520;22;45400;-79
2021/10/26 19:31:49;;;;;;;;;15.50;14.75;;;;;;;;6230701;22;45489;-80
2021/10/26 19:34:15;;;;;;;;;18.25;12.25;;;;;;;;6212188;22;45549;-80
2021/10/26 19:36:46;;;;;;;;;14.00;14.00;;;;;;;;6205391;22;46441;-80
2021/10/26 19:39:12;;;;;;;;;15.75;14.00;;;;;;;;6233163;22;45545;-80
2021/10/26 19:41:38;;;;;;;;;12.25;11.25;;;;;;;;6228217;22;45491;-80
2021/10/26 19:44:04;;;;;;;;;13.75;10.25;;;;;;;;6232785;22;45475;-80
2021/10/26 19:46:31;;;;;;;;;13.50;11.00;;;;;;;;6232661;22;46087;-79
2021/10/26 19:49:01;;;;;;;;;12.75;11.00;;;;;;;;6229792;22;45576;-80
2021/10/26 19:51:27;;;;;;;;;11.75;8.00;;;;;;;;6202726;22;45559;-80